APL China — WDB3161 — position and weather

sailwx.info

Track history (hours):
 
Tides and Currents Weather Stations Pressure Air Temp Water Temp Dewpoint Dewpoint Depression Visibility Wind Speed Wind Dir Waves Ship Positions

APL China

Owner: APL Maritime, Ltd, Rockville, MD. More information available from US FCC via Universal Licensing System and Coast Guard Vessel Documentation Center.

Last reported at 2017-Dec-14 05:17 UTC. Time now 2017-Dec-16 16:37 UTC.
Position N 31°06' E 122°19'.

Length 276.3 m; beam 40 m; draft 14 m.

Type: Cargo ship. MMSI: 369247000.

Date/timePositionNaut miles runAvg speedWind from/ knotsBaromVisibWave heightAir tempDewpointWater temp
2017-Dec-14 05:17N 31°06' E 122°19'914.8
2017-Dec-14 04:39N 31°11' E 122°10'415.0
2017-Dec-14 04:23N 31°14' E 122°06'614.9
2017-Dec-14 03:59N 31°15' E 121°59'814.8
2017-Dec-14 03:26N 31°17' E 121°50'1113.2
2017-Dec-14 02:36N 31°22' E 121°38'111.1
2017-Dec-14 02:28N 31°22' E 121°37'1 1.0
2017-Dec-14 00:59N 31°22' E 121°35'0 0.0
2017-Dec-14 00:17N 31°22' E 121°35'0 0.0
2017-Dec-13 18:38N 31°22' E 121°35'0 0.0
2017-Dec-13 18:20N 31°22' E 121°35'0 0.0
2017-Dec-13 17:50N 31°22' E 121°35'0 0.0
2017-Dec-13 04:50N 31°22' E 121°35'0 0.0
2017-Dec-13 04:26N 31°22' E 121°35'0 0.0
2017-Dec-13 03:56N 31°22' E 121°35'0 0.0
2017-Dec-13 03:17N 31°22' E 121°35'0 0.0
2017-Dec-13 02:53N 31°22' E 121°35'0 0.0
2017-Dec-13 02:29N 31°22' E 121°35'1 2.2
2017-Dec-13 01:59N 31°23' E 121°34'0 0.7
2017-Dec-13 01:30N 31°23' E 121°34'2 3.3
2017-Dec-13 01:00N 31°23' E 121°36'610.7
2017-Dec-13 00:28N 31°20' E 121°41'710.9
2017-Dec-12 23:49N 31°17' E 121°49'288 9.5
2017-Dec-11 17:36N 35°58' E 120°35'415.0
2017-Dec-11 17:20N 35°59' E 120°30'612.7
2017-Dec-11 16:50N 36°01' E 120°22'610.0
2017-Dec-11 16:14N 36°02' E 120°15'2 8.4
2017-Dec-11 15:58N 36°01' E 120°13'0 0.2
2017-Dec-11 14:25N 36°00' E 120°13'0 0.0
2017-Dec-11 14:00N 36°00' E 120°13'  
2017-Dec-09 06:00N 31°06' E 125°18'   320 / 61022.1 0.1 12.0 5.619.0
2017-Dec-04 18:00N 31°42' E 132°36'   320 / 301013.9 13.0 6.823.0
Track history (hours):
 
Tides and Currents Weather Stations Pressure Air Temp Water Temp Dewpoint Dewpoint Depression Visibility Wind Speed Wind Dir Waves Ship Positions

APL China

Owner: APL Maritime, Ltd, Rockville, MD. More information available from US FCC via Universal Licensing System and Coast Guard Vessel Documentation Center.

Last reported at 2017-Dec-14 05:17 UTC. Time now 2017-Dec-16 16:37 UTC.
Position N 31°06' E 122°19'.

Length 276.3 m; beam 40 m; draft 14 m.

Type: Cargo ship. MMSI: 369247000.

Date/timePositionNaut miles runAvg speedWind from/ knotsBaromVisibWave heightAir tempDewpointWater temp
2017-Dec-14 05:17N 31°06' E 122°19'914.8
2017-Dec-14 04:39N 31°11' E 122°10'415.0
2017-Dec-14 04:23N 31°14' E 122°06'614.9
2017-Dec-14 03:59N 31°15' E 121°59'814.8
2017-Dec-14 03:26N 31°17' E 121°50'1113.2
2017-Dec-14 02:36N 31°22' E 121°38'111.1
2017-Dec-14 02:28N 31°22' E 121°37'1 1.0
2017-Dec-14 00:59N 31°22' E 121°35'0 0.0
2017-Dec-14 00:17N 31°22' E 121°35'0 0.0
2017-Dec-13 18:38N 31°22' E 121°35'0 0.0
2017-Dec-13 18:20N 31°22' E 121°35'0 0.0
2017-Dec-13 17:50N 31°22' E 121°35'0 0.0
2017-Dec-13 04:50N 31°22' E 121°35'0 0.0
2017-Dec-13 04:26N 31°22' E 121°35'0 0.0
2017-Dec-13 03:56N 31°22' E 121°35'0 0.0
2017-Dec-13 03:17N 31°22' E 121°35'0 0.0
2017-Dec-13 02:53N 31°22' E 121°35'0 0.0
2017-Dec-13 02:29N 31°22' E 121°35'1 2.2
2017-Dec-13 01:59N 31°23' E 121°34'0 0.7
2017-Dec-13 01:30N 31°23' E 121°34'2 3.3
2017-Dec-13 01:00N 31°23' E 121°36'610.7
2017-Dec-13 00:28N 31°20' E 121°41'710.9
2017-Dec-12 23:49N 31°17' E 121°49'288 9.5
2017-Dec-11 17:36N 35°58' E 120°35'415.0
2017-Dec-11 17:20N 35°59' E 120°30'612.7
2017-Dec-11 16:50N 36°01' E 120°22'610.0
2017-Dec-11 16:14N 36°02' E 120°15'2 8.4
2017-Dec-11 15:58N 36°01' E 120°13'0 0.2
2017-Dec-11 14:25N 36°00' E 120°13'0 0.0
2017-Dec-11 14:00N 36°00' E 120°13'  
2017-Dec-09 06:00N 31°06' E 125°18'   320 / 61022.1 0.1 12.0 5.619.0
2017-Dec-04 18:00N 31°42' E 132°36'   320 / 301013.9 13.0 6.823.0

Dump ship's entire track history